sensor_id;sensor_type;location;lat;lon;timestamp;pressure;altitude;pressure_sealevel;temperature;humidity
9139;BME280;4604;48.616;9.548;2022-10-10T00:02:04;97026.00;;;10.37;100.00
9139;BME280;4604;48.616;9.548;2022-10-10T00:04:31;97017.50;;;10.34;100.00
9139;BME280;4604;48.616;9.548;2022-10-10T00:06:57;97029.16;;;10.41;100.00
9139;BME280;4604;48.616;9.548;2022-10-10T00:09:24;97026.69;;;10.39;100.00
9139;BME280;4604;48.616;9.548;2022-10-10T00:11:57;97025.19;;;10.46;100.00
9139;BME280;4604;48.616;9.548;2022-10-10T00:14:23;97020.03;;;10.45;100.00
9139;BME280;4604;48.616;9.548;2022-10-10T00:16:56;97025.19;;;10.46;100.00
9139;BME280;4604;48.616;9.548;2022-10-10T00:19:25;97006.53;;;10.38;100.00
9139;BME280;4604;48.616;9.548;2022-10-10T00:21:54;97023.50;;;10.45;100.00
9139;BME280;4604;48.616;9.548;2022-10-10T00:24:21;97029.75;;;10.44;100.00
9139;BME280;4604;48.616;9.548;2022-10-10T00:26:48;97025.59;;;10.42;100.00
9139;BME280;4604;48.616;9.548;2022-10-10T00:29:14;97011.53;;;10.32;100.00
9139;BME280;4604;48.616;9.548;2022-10-10T00:31:41;97010.97;;;10.38;100.00
9139;BME280;4604;48.616;9.548;2022-10-10T00:34:08;97017.66;;;10.42;100.00
9139;BME280;4604;48.616;9.548;2022-10-10T00:36:36;97018.91;;;10.38;100.00
9139;BME280;4604;48.616;9.548;2022-10-10T00:39:03;97018.91;;;10.38;100.00
9139;BME280;4604;48.616;9.548;2022-10-10T00:41:30;97008.34;;;10.38;100.00
9139;BME280;4604;48.616;9.548;2022-10-10T00:44:05;97000.72;;;10.35;100.00
9139;BME280;4604;48.616;9.548;2022-10-10T00:46:32;97005.44;;;10.41;100.00
9139;BME280;4604;48.616;9.548;2022-10-10T00:49:00;97006.13;;;10.43;100.00
9139;BME280;4604;48.616;9.548;2022-10-10T00:51:27;96991.41;;;10.40;100.00
9139;BME280;4604;48.616;9.548;2022-10-10T00:53:58;96997.69;;;10.49;100.00
9139;BME280;4604;48.616;9.548;2022-10-10T00:56:29;96990.03;;;10.46;100.00
9139;BME280;4604;48.616;9.548;2022-10-10T00:58:59;96994.06;;;10.50;100.00
9139;BME280;4604;48.616;9.548;2022-10-10T01:01:27;96988.78;;;10.50;100.00
9139;BME280;4604;48.616;9.548;2022-10-10T01:03:56;96990.19;;;10.54;100.00
9139;BME280;4604;48.616;9.548;2022-10-10T01:06:23;96991.72;;;10.57;100.00
9139;BME280;4604;48.616;9.548;2022-10-10T01:08:49;96988.78;;;10.60;100.00
9139;BME280;4604;48.616;9.548;2022-10-10T01:14:15;96982.28;;;10.54;100.00
9139;BME280;4604;48.616;9.548;2022-10-10T01:16:55;96980.88;;;10.60;100.00
9139;BME280;4604;48.616;9.548;2022-10-10T01:22:36;96983.38;;;10.61;100.00
9139;BME280;4604;48.616;9.548;2022-10-10T01:25:15;96973.38;;;10.65;100.00
9139;BME280;4604;48.616;9.548;2022-10-10T01:27:50;96970.75;;;10.65;100.00
9139;BME280;4604;48.616;9.548;2022-10-10T01:30:22;96961.69;;;10.58;100.00
9139;BME280;4604;48.616;9.548;2022-10-10T01:32:52;96959.88;;;10.58;100.00
9139;BME280;4604;48.616;9.548;2022-10-10T01:35:27;96965.63;;;10.63;100.00
9139;BME280;4604;48.616;9.548;2022-10-10T01:38:03;96968.94;;;10.65;100.00
9139;BME280;4604;48.616;9.548;2022-10-10T01:40:37;96965.34;;;10.66;100.00
9139;BME280;4604;48.616;9.548;2022-10-10T01:43:06;96959.47;;;10.63;100.00
9139;BME280;4604;48.616;9.548;2022-10-10T01:45:35;96965.34;;;10.66;100.00
9139;BME280;4604;48.616;9.548;2022-10-10T01:48:04;96962.69;;;10.66;100.00
9139;BME280;4604;48.616;9.548;2022-10-10T01:50:34;96915.72;;;10.41;100.00
9139;BME280;4604;48.616;9.548;2022-10-10T01:53:13;96957.41;;;10.66;100.00
9139;BME280;4604;48.616;9.548;2022-10-10T01:55:50;96954.78;;;10.66;100.00
9139;BME280;4604;48.616;9.548;2022-10-10T01:58:48;96958.38;;;10.65;100.00
9139;BME280;4604;48.616;9.548;2022-10-10T02:01:26;96952.13;;;10.66;100.00
9139;BME280;4604;48.616;9.548;2022-10-10T02:04:08;96938.38;;;10.53;100.00
9139;BME280;4604;48.616;9.548;2022-10-10T02:06:41;96945.47;;;10.62;100.00
9139;BME280;4604;48.616;9.548;2022-10-10T02:09:12;96951.84;;;10.60;100.00
9139;BME280;4604;48.616;9.548;2022-10-10T02:11:41;96952.66;;;10.60;100.00
9139;BME280;4604;48.616;9.548;2022-10-10T02:14:13;96950.19;;;10.59;100.00
9139;BME280;4604;48.616;9.548;2022-10-10T02:16:46;96936.72;;;10.52;100.00
9139;BME280;4604;48.616;9.548;2022-10-10T02:19:16;96948.66;;;10.56;100.00
9139;BME280;4604;48.616;9.548;2022-10-10T02:21:44;96939.47;;;10.50;100.00
9139;BME280;4604;48.616;9.548;2022-10-10T02:24:12;96941.41;;;10.58;100.00
9139;BME280;4604;48.616;9.548;2022-10-10T02:26:43;96956.44;;;10.58;100.00
9139;BME280;4604;48.616;9.548;2022-10-10T02:29:14;96942.53;;;10.56;100.00
9139;BME280;4604;48.616;9.548;2022-10-10T02:31:48;96948.25;;;10.61;100.00
9139;BME280;4604;48.616;9.548;2022-10-10T02:34:18;96948.38;;;10.59;100.00
9139;BME280;4604;48.616;9.548;2022-10-10T02:36:50;96950.03;;;10.60;100.00
9139;BME280;4604;48.616;9.548;2022-10-10T02:39:21;96947.28;;;10.62;100.00
9139;BME280;4604;48.616;9.548;2022-10-10T02:41:50;96951.72;;;10.61;100.00
9139;BME280;4604;48.616;9.548;2022-10-10T02:44:18;96931.03;;;10.47;100.00
9139;BME280;4604;48.616;9.548;2022-10-10T02:46:47;96950.03;;;10.60;100.00
9139;BME280;4604;48.616;9.548;2022-10-10T02:49:23;96940.19;;;10.62;100.00
9139;BME280;4604;48.616;9.548;2022-10-10T02:51:51;96950.91;;;10.61;100.00
9139;BME280;4604;48.616;9.548;2022-10-10T02:54:18;96940.34;;;10.61;100.00
9139;BME280;4604;48.616;9.548;2022-10-10T02:56:45;96951.97;;;10.58;100.00
9139;BME280;4604;48.616;9.548;2022-10-10T02:59:11;96953.78;;;10.58;100.00
9139;BME280;4604;48.616;9.548;2022-10-10T03:01:38;96947.81;;;10.56;100.00
9139;BME280;4604;48.616;9.548;2022-10-10T03:04:06;96941.44;;;10.48;100.00
9139;BME280;4604;48.616;9.548;2022-10-10T03:06:33;96949.63;;;10.55;100.00
9139;BME280;4604;48.616;9.548;2022-10-10T03:09:00;96948.78;;;10.55;100.00
9139;BME280;4604;48.616;9.548;2022-10-10T03:11:27;96955.88;;;10.54;100.00
9139;BME280;4604;48.616;9.548;2022-10-10T03:13:56;96962.00;;;10.55;100.00
9139;BME280;4604;48.616;9.548;2022-10-10T03:16:22;96949.06;;;10.52;100.00
9139;BME280;4604;48.616;9.548;2022-10-10T03:18:49;96951.00;;;10.49;100.00
9139;BME280;4604;48.616;9.548;2022-10-10T03:21:17;96943.22;;;10.48;100.00
9139;BME280;4604;48.616;9.548;2022-10-10T03:23:44;96954.34;;;10.52;100.00
9139;BME280;4604;48.616;9.548;2022-10-10T03:26:10;96959.63;;;10.52;100.00
9139;BME280;4604;48.616;9.548;2022-10-10T03:28:37;96951.84;;;10.50;100.00
9139;BME280;4604;48.616;9.548;2022-10-10T03:31:04;96955.06;;;10.54;100.00
9139;BME280;4604;48.616;9.548;2022-10-10T03:33:31;96954.34;;;10.52;100.00
9139;BME280;4604;48.616;9.548;2022-10-10T03:35:59;96951.56;;;10.53;100.00
9139;BME280;4604;48.616;9.548;2022-10-10T03:38:28;96962.28;;;10.52;100.00
9139;BME280;4604;48.616;9.548;2022-10-10T03:40:55;96950.03;;;10.50;100.00
9139;BME280;4604;48.616;9.548;2022-10-10T03:43:21;96947.56;;;10.49;100.00
9139;BME280;4604;48.616;9.548;2022-10-10T03:45:48;96947.25;;;10.52;100.00
9139;BME280;4604;48.616;9.548;2022-10-10T03:48:15;96949.22;;;10.50;100.00
9139;BME280;4604;48.616;9.548;2022-10-10T03:50:42;96953.38;;;10.53;100.00
9139;BME280;4604;48.616;9.548;2022-10-10T03:53:09;96944.91;;;10.49;100.00
9139;BME280;4604;48.616;9.548;2022-10-10T03:55:39;96946.28;;;10.53;100.00
9139;BME280;4604;48.616;9.548;2022-10-10T03:58:06;96948.91;;;10.53;100.00
9139;BME280;4604;48.616;9.548;2022-10-10T04:00:33;96938.53;;;10.52;100.00
9139;BME280;4604;48.616;9.548;2022-10-10T04:03:00;96946.16;;;10.55;100.00
9139;BME280;4604;48.616;9.548;2022-10-10T04:05:32;96943.81;;;10.52;100.00
9139;BME280;4604;48.616;9.548;2022-10-10T04:07:58;96947.25;;;10.52;100.00
9139;BME280;4604;48.616;9.548;2022-10-10T04:10:26;96942.00;;;10.52;100.00
9139;BME280;4604;48.616;9.548;2022-10-10T04:12:54;96944.50;;;10.54;100.00
9139;BME280;4604;48.616;9.548;2022-10-10T04:15:21;96949.78;;;10.54;100.00
9139;BME280;4604;48.616;9.548;2022-10-10T04:17:48;96931.72;;;10.49;100.00
9139;BME280;4604;48.616;9.548;2022-10-10T04:20:15;96944.50;;;10.54;100.00
9139;BME280;4604;48.616;9.548;2022-10-10T04:22:42;96941.00;;;10.53;100.00
9139;BME280;4604;48.616;9.548;2022-10-10T04:25:09;96933.38;;;10.50;100.00
9139;BME280;4604;48.616;9.548;2022-10-10T04:27:36;96947.13;;;10.54;100.00
9139;BME280;4604;48.616;9.548;2022-10-10T04:30:06;96937.25;;;10.46;100.00
9139;BME280;4604;48.616;9.548;2022-10-10T04:32:33;96943.50;;;10.45;100.00
9139;BME280;4604;48.616;9.548;2022-10-10T04:34:59;96947.25;;;10.42;100.00
9139;BME280;4604;48.616;9.548;2022-10-10T04:37:26;96949.78;;;10.44;100.00
9139;BME280;4604;48.616;9.548;2022-10-10T04:39:55;96955.31;;;10.41;100.00
9139;BME280;4604;48.616;9.548;2022-10-10T04:42:22;96931.56;;;10.41;100.00
9139;BME280;4604;48.616;9.548;2022-10-10T04:44:48;96943.38;;;10.37;100.00
9139;BME280;4604;48.616;9.548;2022-10-10T04:47:17;96948.38;;;10.40;100.00
9139;BME280;4604;48.616;9.548;2022-10-10T04:49:45;96946.56;;;10.40;100.00
9139;BME280;4604;48.616;9.548;2022-10-10T04:52:12;96953.38;;;10.43;100.00
9139;BME280;4604;48.616;9.548;2022-10-10T04:54:39;96952.41;;;10.44;100.00
9139;BME280;4604;48.616;9.548;2022-10-10T04:57:06;96948.91;;;10.43;100.00
9139;BME280;4604;48.616;9.548;2022-10-10T04:59:33;96950.59;;;10.44;100.00
9139;BME280;4604;48.616;9.548;2022-10-10T05:01:59;96950.44;;;10.46;100.00
9139;BME280;4604;48.616;9.548;2022-10-10T05:04:27;96942.41;;;10.47;100.00
9139;BME280;4604;48.616;9.548;2022-10-10T05:06:56;96947.97;;;10.44;100.00
9139;BME280;4604;48.616;9.548;2022-10-10T05:09:23;96955.31;;;10.41;100.00
9139;BME280;4604;48.616;9.548;2022-10-10T05:11:50;96953.53;;;10.41;100.00
9139;BME280;4604;48.616;9.548;2022-10-10T05:14:16;96960.72;;;10.39;100.00
9139;BME280;4604;48.616;9.548;2022-10-10T05:16:43;96950.03;;;10.41;100.00
9139;BME280;4604;48.616;9.548;2022-10-10T05:19:10;96939.06;;;10.36;100.00
9139;BME280;4604;48.616;9.548;2022-10-10T05:21:38;96948.38;;;10.40;100.00
9139;BME280;4604;48.616;9.548;2022-10-10T05:24:05;96958.09;;;10.39;100.00
9139;BME280;4604;48.616;9.548;2022-10-10T05:26:31;96956.56;;;10.37;100.00
9139;BME280;4604;48.616;9.548;2022-10-10T05:28:59;96947.13;;;10.34;100.00
9139;BME280;4604;48.616;9.548;2022-10-10T05:31:26;96955.59;;;10.38;100.00
9139;BME280;4604;48.616;9.548;2022-10-10T05:33:53;96966.25;;;10.36;100.00
9139;BME280;4604;48.616;9.548;2022-10-10T05:36:20;96961.84;;;10.37;100.00
9139;BME280;4604;48.616;9.548;2022-10-10T05:38:48;96968.66;;;10.39;100.00
9139;BME280;4604;48.616;9.548;2022-10-10T05:41:15;96962.53;;;10.39;100.00
9139;BME280;4604;48.616;9.548;2022-10-10T05:43:42;96965.84;;;10.41;100.00
9139;BME280;4604;48.616;9.548;2022-10-10T05:46:08;96965.03;;;10.40;100.00
9139;BME280;4604;48.616;9.548;2022-10-10T05:48:35;96964.06;;;10.41;100.00
9139;BME280;4604;48.616;9.548;2022-10-10T05:51:02;96968.38;;;10.42;100.00
9139;BME280;4604;48.616;9.548;2022-10-10T05:53:29;96969.78;;;10.46;100.00
9139;BME280;4604;48.616;9.548;2022-10-10T05:55:59;96965.88;;;10.50;100.00
9139;BME280;4604;48.616;9.548;2022-10-10T05:58:27;96966.84;;;10.49;100.00
9139;BME280;4604;48.616;9.548;2022-10-10T06:01:01;96974.63;;;10.51;100.00
9139;BME280;4604;48.616;9.548;2022-10-10T06:03:28;96977.94;;;10.53;100.00
9139;BME280;4604;48.616;9.548;2022-10-10T06:05:55;96977.81;;;10.55;100.00
9139;BME280;4604;48.616;9.548;2022-10-10T06:08:22;96975.88;;;10.57;100.00
9139;BME280;4604;48.616;9.548;2022-10-10T06:10:49;96969.09;;;10.64;100.00
9139;BME280;4604;48.616;9.548;2022-10-10T06:13:18;96984.22;;;10.62;100.00
9139;BME280;4604;48.616;9.548;2022-10-10T06:15:48;96976.00;;;10.65;100.00
9139;BME280;4604;48.616;9.548;2022-10-10T06:18:15;96989.63;;;10.70;100.00
9139;BME280;4604;48.616;9.548;2022-10-10T06:20:42;96987.56;;;10.74;100.00
9139;BME280;4604;48.616;9.548;2022-10-10T06:23:09;96996.03;;;10.77;100.00
9139;BME280;4604;48.616;9.548;2022-10-10T06:25:36;96986.88;;;10.81;100.00
9139;BME280;4604;48.616;9.548;2022-10-10T06:28:03;96988.50;;;10.82;100.00
9139;BME280;4604;48.616;9.548;2022-10-10T06:30:32;96995.06;;;10.88;100.00
9139;BME280;4604;48.616;9.548;2022-10-10T06:32:59;96982.00;;;10.86;100.00
9139;BME280;4604;48.616;9.548;2022-10-10T06:35:26;96992.56;;;10.96;100.00
9139;BME280;4604;48.616;9.548;2022-10-10T06:37:59;96998.38;;;11.00;100.00
9139;BME280;4604;48.616;9.548;2022-10-10T06:40:26;96989.22;;;11.04;100.00
9139;BME280;4604;48.616;9.548;2022-10-10T06:42:58;96999.63;;;11.15;100.00
9139;BME280;4604;48.616;9.548;2022-10-10T06:45:25;96997.00;;;11.15;100.00
9139;BME280;4604;48.616;9.548;2022-10-10T06:47:57;97000.31;;;11.27;100.00
9139;BME280;4604;48.616;9.548;2022-10-10T06:50:24;97009.19;;;11.35;100.00
9139;BME280;4604;48.616;9.548;2022-10-10T06:52:51;97011.28;;;11.42;100.00
9139;BME280;4604;48.616;9.548;2022-10-10T06:55:18;97011.94;;;11.53;100.00
9139;BME280;4604;48.616;9.548;2022-10-10T06:57:44;97011.78;;;11.55;100.00
9139;BME280;4604;48.616;9.548;2022-10-10T07:00:12;97016.91;;;11.66;100.00
9139;BME280;4604;48.616;9.548;2022-10-10T07:02:39;97012.31;;;11.68;100.00
9139;BME280;4604;48.616;9.548;2022-10-10T07:05:10;97017.41;;;11.79;100.00
9139;BME280;4604;48.616;9.548;2022-10-10T07:07:37;97016.88;;;11.76;100.00
9139;BME280;4604;48.616;9.548;2022-10-10T07:10:04;97019.78;;;11.83;100.00
9139;BME280;4604;48.616;9.548;2022-10-10T07:12:31;97021.13;;;11.96;100.00
9139;BME280;4604;48.616;9.548;2022-10-10T07:14:58;97016.16;;;11.93;100.00
9139;BME280;4604;48.616;9.548;2022-10-10T07:17:25;97028.91;;;12.08;100.00
9139;BME280;4604;48.616;9.548;2022-10-10T07:19:51;97021.06;;;12.16;100.00
9139;BME280;4604;48.616;9.548;2022-10-10T07:22:19;97034.53;;;12.23;100.00
9139;BME280;4604;48.616;9.548;2022-10-10T07:24:46;97035.47;;;12.31;100.00
9139;BME280;4604;48.616;9.548;2022-10-10T07:27:13;97035.56;;;12.39;100.00
9139;BME280;4604;48.616;9.548;2022-10-10T07:29:40;97036.66;;;12.47;100.00
9139;BME280;4604;48.616;9.548;2022-10-10T07:32:07;97046.25;;;12.48;100.00
9139;BME280;4604;48.616;9.548;2022-10-10T07:34:35;97047.44;;;12.53;100.00
9139;BME280;4604;48.616;9.548;2022-10-10T07:37:02;97051.19;;;12.60;100.00
9139;BME280;4604;48.616;9.548;2022-10-10T07:39:30;97050.91;;;12.63;100.00
9139;BME280;4604;48.616;9.548;2022-10-10T07:41:57;97048.09;;;12.65;100.00
9139;BME280;4604;48.616;9.548;2022-10-10T07:44:24;97053.38;;;12.65;100.00
9139;BME280;4604;48.616;9.548;2022-10-10T07:46:51;97057.19;;;12.80;100.00
9139;BME280;4604;48.616;9.548;2022-10-10T07:49:17;97054.69;;;12.79;100.00
9139;BME280;4604;48.616;9.548;2022-10-10T07:51:44;97062.25;;;12.92;100.00
9139;BME280;4604;48.616;9.548;2022-10-10T07:54:11;97067.59;;;13.10;100.00
9139;BME280;4604;48.616;9.548;2022-10-10T07:56:39;97062.94;;;13.12;100.00
9139;BME280;4604;48.616;9.548;2022-10-10T07:59:06;97060.53;;;13.18;100.00
9139;BME280;4604;48.616;9.548;2022-10-10T08:01:33;97065.63;;;13.30;100.00
9139;BME280;4604;48.616;9.548;2022-10-10T08:03:59;97063.03;;;13.38;100.00
9139;BME280;4604;48.616;9.548;2022-10-10T08:06:26;97051.31;;;13.40;100.00
9139;BME280;4604;48.616;9.548;2022-10-10T08:08:53;97064.38;;;13.60;100.00
9139;BME280;4604;48.616;9.548;2022-10-10T08:11:20;97053.66;;;13.69;100.00
9139;BME280;4604;48.616;9.548;2022-10-10T08:13:50;97056.69;;;13.75;100.00
9139;BME280;4604;48.616;9.548;2022-10-10T08:16:17;97059.75;;;13.88;100.00
9139;BME280;4604;48.616;9.548;2022-10-10T08:18:44;97060.16;;;14.01;100.00
9139;BME280;4604;48.616;9.548;2022-10-10T08:21:12;97064.22;;;14.13;100.00
9139;BME280;4604;48.616;9.548;2022-10-10T08:23:39;97068.69;;;14.13;100.00
9139;BME280;4604;48.616;9.548;2022-10-10T08:26:08;97067.19;;;14.10;100.00
9139;BME280;4604;48.616;9.548;2022-10-10T08:28:37;97069.56;;;14.22;100.00
9139;BME280;4604;48.616;9.548;2022-10-10T08:31:06;97070.56;;;14.21;100.00
9139;BME280;4604;48.616;9.548;2022-10-10T08:33:33;97084.50;;;14.23;100.00
9139;BME280;4604;48.616;9.548;2022-10-10T08:36:04;97068.44;;;14.24;100.00
9139;BME280;4604;48.616;9.548;2022-10-10T08:38:31;97063.97;;;14.33;100.00
9139;BME280;4604;48.616;9.548;2022-10-10T08:40:59;97065.44;;;14.27;100.00
9139;BME280;4604;48.616;9.548;2022-10-10T08:43:30;97077.91;;;14.27;100.00
9139;BME280;4604;48.616;9.548;2022-10-10T08:46:06;97060.34;;;14.00;100.00
9139;BME280;4604;48.616;9.548;2022-10-10T08:48:35;97075.03;;;14.20;100.00
9139;BME280;4604;48.616;9.548;2022-10-10T08:51:06;97073.88;;;14.23;100.00
9139;BME280;4604;48.616;9.548;2022-10-10T08:53:38;97075.50;;;14.16;100.00
9139;BME280;4604;48.616;9.548;2022-10-10T08:56:10;97078.19;;;14.24;100.00
9139;BME280;4604;48.616;9.548;2022-10-10T08:58:44;97081.38;;;14.27;100.00
9139;BME280;4604;48.616;9.548;2022-10-10T09:01:15;97067.97;;;14.29;100.00
9139;BME280;4604;48.616;9.548;2022-10-10T09:03:45;97083.25;;;14.43;100.00
9139;BME280;4604;48.616;9.548;2022-10-10T09:06:27;97068.19;;;14.44;100.00
9139;BME280;4604;48.616;9.548;2022-10-10T09:09:02;97075.16;;;14.53;100.00
9139;BME280;4604;48.616;9.548;2022-10-10T09:11:43;97070.75;;;14.53;100.00
9139;BME280;4604;48.616;9.548;2022-10-10T09:14:20;97074.25;;;14.62;100.00
9139;BME280;4604;48.616;9.548;2022-10-10T09:16:56;97069.78;;;14.71;100.00
9139;BME280;4604;48.616;9.548;2022-10-10T09:19:38;97067.97;;;14.80;100.00
9139;BME280;4604;48.616;9.548;2022-10-10T09:22:12;97069.81;;;14.87;100.00
9139;BME280;4604;48.616;9.548;2022-10-10T09:24:44;97069.03;;;14.95;100.00
9139;BME280;4604;48.616;9.548;2022-10-10T09:27:16;97070.00;;;14.94;100.00
9139;BME280;4604;48.616;9.548;2022-10-10T09:29:50;97086.00;;;15.02;100.00
9139;BME280;4604;48.616;9.548;2022-10-10T09:32:22;97079.53;;;15.13;100.00
9139;BME280;4604;48.616;9.548;2022-10-10T09:34:52;97085.50;;;15.15;100.00
9139;BME280;4604;48.616;9.548;2022-10-10T09:37:24;97080.00;;;15.16;100.00
9139;BME280;4604;48.616;9.548;2022-10-10T09:39:59;97083.19;;;15.20;100.00
9139;BME280;4604;48.616;9.548;2022-10-10T09:42:32;97069.88;;;15.20;100.00
9139;BME280;4604;48.616;9.548;2022-10-10T09:45:00;97088.69;;;15.27;100.00
9139;BME280;4604;48.616;9.548;2022-10-10T09:47:29;97084.34;;;15.26;100.00
9139;BME280;4604;48.616;9.548;2022-10-10T09:49:57;97089.00;;;15.24;100.00
9139;BME280;4604;48.616;9.548;2022-10-10T09:52:26;97083.84;;;15.30;100.00
9139;BME280;4604;48.616;9.548;2022-10-10T09:54:56;97087.34;;;15.31;100.00
9139;BME280;4604;48.616;9.548;2022-10-10T09:57:29;97090.66;;;15.33;100.00
9139;BME280;4604;48.616;9.548;2022-10-10T09:59:57;97101.81;;;15.36;100.00
9139;BME280;4604;48.616;9.548;2022-10-10T10:02:26;97082.34;;;15.28;100.00
9139;BME280;4604;48.616;9.548;2022-10-10T10:04:54;97087.69;;;15.19;100.00
9139;BME280;4604;48.616;9.548;2022-10-10T10:07:26;97091.16;;;15.12;100.00
9139;BME280;4604;48.616;9.548;2022-10-10T10:09:55;97102.97;;;15.17;100.00
9139;BME280;4604;48.616;9.548;2022-10-10T10:12:24;97109.59;;;15.13;100.00
9139;BME280;4604;48.616;9.548;2022-10-10T10:14:58;97110.06;;;15.09;100.00
9139;BME280;4604;48.616;9.548;2022-10-10T10:17:26;97106.94;;;15.05;100.00
9139;BME280;4604;48.616;9.548;2022-10-10T10:19:55;97117.06;;;15.10;100.00
9139;BME280;4604;48.616;9.548;2022-10-10T10:22:24;97108.28;;;15.17;100.00
9139;BME280;4604;48.616;9.548;2022-10-10T10:24:51;97100.44;;;15.16;100.00
9139;BME280;4604;48.616;9.548;2022-10-10T10:27:20;97094.66;;;15.12;100.00
9139;BME280;4604;48.616;9.548;2022-10-10T10:29:49;97113.78;;;15.24;100.00
9139;BME280;4604;48.616;9.548;2022-10-10T10:32:30;97113.09;;;15.30;100.00
9139;BME280;4604;48.616;9.548;2022-10-10T10:35:11;97105.31;;;15.37;100.00
9139;BME280;4604;48.616;9.548;2022-10-10T10:37:51;97109.28;;;15.41;100.00
9139;BME280;4604;48.616;9.548;2022-10-10T10:40:28;97109.47;;;15.48;100.00
9139;BME280;4604;48.616;9.548;2022-10-10T10:43:25;97108.63;;;15.55;100.00
9139;BME280;4604;48.616;9.548;2022-10-10T10:46:05;97112.47;;;15.69;100.00
9139;BME280;4604;48.616;9.548;2022-10-10T10:48:40;97108.00;;;15.78;100.00
9139;BME280;4604;48.616;9.548;2022-10-10T10:54:25;97113.00;;;15.97;100.00
9139;BME280;4604;48.616;9.548;2022-10-10T10:57:00;97112.63;;;16.00;100.00
9139;BME280;4604;48.616;9.548;2022-10-10T10:59:35;97107.47;;;16.07;100.00
9139;BME280;4604;48.616;9.548;2022-10-10T11:02:21;97099.16;;;16.10;100.00
9139;BME280;4604;48.616;9.548;2022-10-10T11:05:09;97105.13;;;16.12;100.00
9139;BME280;4604;48.616;9.548;2022-10-10T11:07:57;97103.47;;;16.19;100.00
9139;BME280;4604;48.616;9.548;2022-10-10T11:10:33;97084.16;;;16.17;100.00
9139;BME280;4604;48.616;9.548;2022-10-10T11:13:10;97093.25;;;16.39;100.00
9139;BME280;4604;48.616;9.548;2022-10-10T11:15:42;97092.38;;;16.47;100.00
9139;BME280;4604;48.616;9.548;2022-10-10T11:18:13;97089.66;;;16.63;100.00
9139;BME280;4604;48.616;9.548;2022-10-10T11:20:46;97086.75;;;16.81;100.00
9139;BME280;4604;48.616;9.548;2022-10-10T11:23:20;97095.88;;;16.95;100.00
9139;BME280;4604;48.616;9.548;2022-10-10T11:25:51;97081.81;;;17.01;100.00
9139;BME280;4604;48.616;9.548;2022-10-10T11:28:23;97073.72;;;17.18;100.00
9139;BME280;4604;48.616;9.548;2022-10-10T11:30:56;97086.19;;;17.48;100.00
9139;BME280;4604;48.616;9.548;2022-10-10T11:33:27;97074.41;;;17.58;100.00
9139;BME280;4604;48.616;9.548;2022-10-10T11:35:59;97084.00;;;17.67;100.00
9139;BME280;4604;48.616;9.548;2022-10-10T11:38:33;97080.44;;;17.74;100.00
9139;BME280;4604;48.616;9.548;2022-10-10T11:41:04;97078.03;;;17.88;100.00
9139;BME280;4604;48.616;9.548;2022-10-10T11:43:38;97079.38;;;18.22;100.00
9139;BME280;4604;48.616;9.548;2022-10-10T11:46:19;97060.66;;;18.22;100.00
9139;BME280;4604;48.616;9.548;2022-10-10T11:48:53;97078.69;;;18.49;100.00
9139;BME280;4604;48.616;9.548;2022-10-10T11:51:33;97072.78;;;18.69;100.00
9139;BME280;4604;48.616;9.548;2022-10-10T11:54:06;97066.22;;;18.86;100.00
9139;BME280;4604;48.616;9.548;2022-10-10T11:56:40;97067.28;;;19.07;100.00
9139;BME280;4604;48.616;9.548;2022-10-10T11:59:14;97054.44;;;19.17;97.86
9139;BME280;4604;48.616;9.548;2022-10-10T12:01:47;97064.22;;;19.31;94.16
9139;BME280;4604;48.616;9.548;2022-10-10T12:04:15;97063.97;;;19.26;85.67
9139;BME280;4604;48.616;9.548;2022-10-10T12:06:45;97061.63;;;19.16;74.33
9139;BME280;4604;48.616;9.548;2022-10-10T12:09:18;97056.66;;;19.35;77.19
9139;BME280;4604;48.616;9.548;2022-10-10T12:11:50;97066.91;;;19.31;71.10
9139;BME280;4604;48.616;9.548;2022-10-10T12:14:20;97057.31;;;19.37;73.34
9139;BME280;4604;48.616;9.548;2022-10-10T12:16:48;97045.97;;;19.35;73.55
9139;BME280;4604;48.616;9.548;2022-10-10T12:19:17;97061.50;;;19.46;72.76
9139;BME280;4604;48.616;9.548;2022-10-10T12:21:56;97052.19;;;19.63;74.85
9139;BME280;4604;48.616;9.548;2022-10-10T12:24:26;97048.41;;;19.58;70.88
9139;BME280;4604;48.616;9.548;2022-10-10T12:30:21;97059.72;;;19.75;71.52
9139;BME280;4604;48.616;9.548;2022-10-10T12:32:50;97066.78;;;19.82;70.56
9139;BME280;4604;48.616;9.548;2022-10-10T12:35:29;97057.38;;;19.93;68.53
9139;BME280;4604;48.616;9.548;2022-10-10T12:38:26;97059.72;;;20.03;67.98
9139;BME280;4604;48.616;9.548;2022-10-10T12:41:12;97051.75;;;20.09;65.93
9139;BME280;4604;48.616;9.548;2022-10-10T12:43:46;97056.75;;;20.19;56.57
9139;BME280;4604;48.616;9.548;2022-10-10T12:46:24;97055.94;;;20.25;58.47
9139;BME280;4604;48.616;9.548;2022-10-10T12:51:56;97058.66;;;20.32;57.30
9139;BME280;4604;48.616;9.548;2022-10-10T12:54:27;97042.63;;;20.45;58.09
9139;BME280;4604;48.616;9.548;2022-10-10T12:57:06;97046.00;;;20.54;56.54
9139;BME280;4604;48.616;9.548;2022-10-10T12:59:35;97052.28;;;20.74;57.82
9139;BME280;4604;48.616;9.548;2022-10-10T13:02:05;97046.16;;;20.46;54.28
9139;BME280;4604;48.616;9.548;2022-10-10T13:04:40;97048.75;;;20.61;57.60
9139;BME280;4604;48.616;9.548;2022-10-10T13:07:13;97052.97;;;20.90;57.28
9139;BME280;4604;48.616;9.548;2022-10-10T13:09:43;97053.91;;;20.62;53.67
9139;BME280;4604;48.616;9.548;2022-10-10T13:12:24;97050.09;;;20.50;55.56
9139;BME280;4604;48.616;9.548;2022-10-10T13:14:51;97053.09;;;20.68;57.80
9139;BME280;4604;48.616;9.548;2022-10-10T13:17:30;97044.28;;;20.81;58.22
9139;BME280;4604;48.616;9.548;2022-10-10T13:20:25;97038.53;;;20.91;56.70
9139;BME280;4604;48.616;9.548;2022-10-10T13:22:52;97022.41;;;20.78;55.21
9139;BME280;4604;48.616;9.548;2022-10-10T13:25:20;97046.34;;;20.86;56.60
9139;BME280;4604;48.616;9.548;2022-10-10T13:27:49;97044.28;;;20.81;56.15
9139;BME280;4604;48.616;9.548;2022-10-10T13:30:18;97045.91;;;20.76;53.69
9139;BME280;4604;48.616;9.548;2022-10-10T13:32:46;97042.56;;;20.67;55.28
9139;BME280;4604;48.616;9.548;2022-10-10T13:35:15;97036.78;;;20.63;54.32
9139;BME280;4604;48.616;9.548;2022-10-10T13:37:42;97034.09;;;20.63;55.33
9139;BME280;4604;48.616;9.548;2022-10-10T13:40:13;97016.56;;;20.67;56.13
9139;BME280;4604;48.616;9.548;2022-10-10T13:42:40;97026.75;;;20.92;57.32
9139;BME280;4604;48.616;9.548;2022-10-10T13:45:29;97026.59;;;21.00;54.97